createdAt,value
2019-05-21T00:00:02.010Z,99134.67
2019-05-21T00:02:30.437Z,99127.02
2019-05-21T00:04:58.867Z,99124.91
2019-05-21T00:07:27.307Z,99132.09
2019-05-21T00:09:55.807Z,99132.18
2019-05-21T00:12:24.301Z,99131.23
2019-05-21T00:14:52.766Z,99137.61
2019-05-21T00:17:21.194Z,99142.30
2019-05-21T00:19:49.630Z,99143.59
2019-05-21T00:22:18.061Z,99147.84
2019-05-21T00:24:46.531Z,99146.55
2019-05-21T00:27:15.037Z,99151.33
2019-05-21T00:30:19.474Z,99149.58
2019-05-21T00:33:24.107Z,99154.30
2019-05-21T00:36:30.234Z,99155.75
2019-05-21T00:39:34.914Z,99158.72
2019-05-21T00:42:03.860Z,99166.47
2019-05-21T00:44:35.337Z,99167.64
2019-05-21T00:47:05.691Z,99168.11
2019-05-21T00:49:34.186Z,99168.49
2019-05-21T00:52:07.928Z,99167.55
2019-05-21T00:54:32.918Z,99168.93
2019-05-21T00:57:01.337Z,99169.78
2019-05-21T00:59:29.784Z,99167.28
2019-05-21T01:01:58.357Z,99172.80
2019-05-21T01:04:26.777Z,99167.75
2019-05-21T01:06:55.283Z,99171.07
2019-05-21T01:09:23.746Z,99170.69
2019-05-21T01:11:52.244Z,99169.87
2019-05-21T01:14:20.761Z,99172.45
2019-05-21T01:16:49.199Z,99180.27
2019-05-21T01:19:17.618Z,99180.27
2019-05-21T01:21:46.057Z,99189.30
2019-05-21T01:24:14.508Z,99185.43
2019-05-21T01:26:42.961Z,99188.95
2019-05-21T01:29:11.486Z,99190.23
2019-05-21T01:31:39.928Z,99189.50
2019-05-21T01:34:11.285Z,99183.59
2019-05-21T01:36:38.865Z,99181.48
2019-05-21T01:39:07.290Z,99182.23
2019-05-21T01:41:35.718Z,99171.72
2019-05-21T01:44:04.297Z,99174.30
2019-05-21T01:46:32.730Z,99174.30
2019-05-21T01:49:01.163Z,99174.73
2019-05-21T01:51:29.610Z,99178.60
2019-05-21T01:53:58.054Z,99184.51
2019-05-21T01:56:26.467Z,99180.64
2019-05-21T01:58:54.909Z,99177.86
2019-05-21T02:01:23.368Z,99183.02
2019-05-21T02:03:51.801Z,99185.80
2019-05-21T02:06:20.518Z,99186.54
2019-05-21T02:08:48.953Z,99182.48
2019-05-21T02:11:17.389Z,99189.39
2019-05-21T02:13:45.899Z,99184.23
2019-05-21T02:16:14.399Z,99183.77
2019-05-21T02:18:42.892Z,99183.38
2019-05-21T02:21:11.613Z,99183.84
2019-05-21T02:23:40.025Z,99192.41
2019-05-21T02:26:08.472Z,99192.80
2019-05-21T02:28:36.899Z,99191.13
2019-05-21T02:31:05.480Z,99195.84
2019-05-21T02:33:33.900Z,99189.48
2019-05-21T02:36:02.324Z,99198.50
2019-05-21T02:38:30.746Z,99202.73
2019-05-21T02:40:59.262Z,99202.45
2019-05-21T02:43:27.802Z,99202.84
2019-05-21T02:45:56.259Z,99199.41
2019-05-21T02:48:24.706Z,99201.16
2019-05-21T02:50:53.121Z,99208.91
2019-05-21T02:53:21.567Z,99214.45
2019-05-21T02:55:49.989Z,99212.30
2019-05-21T02:58:18.440Z,99212.77
2019-05-21T03:00:48.512Z,99205.08
2019-05-21T03:03:18.570Z,99208.44
2019-05-21T03:05:47.003Z,99203.36
2019-05-21T03:08:15.623Z,99205.94
2019-05-21T03:10:44.038Z,99208.95
2019-05-21T03:13:12.545Z,99218.83
2019-05-21T03:15:40.964Z,99226.57
2019-05-21T03:18:09.371Z,99230.44
2019-05-21T03:20:37.826Z,99240.29
2019-05-21T03:23:06.341Z,99235.98
2019-05-21T03:25:34.743Z,99238.56
2019-05-21T03:28:03.202Z,99244.16
2019-05-21T03:30:31.701Z,99242.05
2019-05-21T03:33:00.199Z,99246.73
2019-05-21T03:35:28.643Z,99240.68
2019-05-21T03:37:57.081Z,99242.05
2019-05-21T03:40:25.543Z,99249.31
2019-05-21T03:42:54.260Z,99249.78
2019-05-21T03:45:22.658Z,99253.58
2019-05-21T03:47:51.181Z,99258.81
2019-05-21T03:50:19.652Z,99257.05
2019-05-21T03:52:48.085Z,99257.91
2019-05-21T03:55:16.548Z,99259.63
2019-05-21T03:57:44.976Z,99262.22
2019-05-21T04:00:14.151Z,99259.13
2019-05-21T04:02:42.602Z,99263.89
2019-05-21T04:05:11.361Z,99254.43
2019-05-21T04:07:39.885Z,99265.19
2019-05-21T04:10:17.357Z,99265.57
2019-05-21T04:12:47.621Z,99275.50
2019-05-21T04:15:17.770Z,99277.69
2019-05-21T04:18:02.892Z,99273.16
2019-05-21T04:20:31.301Z,99265.34
2019-05-21T04:22:59.822Z,99267.72
2019-05-21T04:25:28.259Z,99272.95
2019-05-21T04:27:56.669Z,99265.69
2019-05-21T04:30:25.128Z,99266.43
2019-05-21T04:32:53.544Z,99273.78
2019-05-21T04:35:21.979Z,99270.77
2019-05-21T04:37:50.567Z,99277.10
2019-05-21T04:40:19.060Z,99278.86
2019-05-21T04:42:47.546Z,99287.06
2019-05-21T04:45:16.154Z,99284.02
2019-05-21T04:47:44.585Z,99282.73
2019-05-21T04:50:13.091Z,99285.59
2019-05-21T04:52:41.544Z,99293.44
2019-05-21T04:55:10.530Z,99300.16
2019-05-21T04:57:39.004Z,99298.72
2019-05-21T05:00:08.614Z,99301.30
2019-05-21T05:02:36.984Z,99302.59
2019-05-21T05:05:06.267Z,99304.62
2019-05-21T05:07:34.767Z,99310.91
2019-05-21T05:10:03.246Z,99313.65
2019-05-21T05:12:31.701Z,99310.91
2019-05-21T05:15:00.121Z,99313.80
2019-05-21T05:17:28.877Z,99312.98
2019-05-21T05:19:57.302Z,99316.38
2019-05-21T05:22:25.750Z,99318.96
2019-05-21T05:24:54.260Z,99330.06
2019-05-21T05:27:22.642Z,99324.90
2019-05-21T05:29:51.076Z,99329.28
2019-05-21T05:32:19.492Z,99333.39
2019-05-21T05:34:47.937Z,99336.58
2019-05-21T05:37:16.389Z,99346.91
2019-05-21T05:39:44.822Z,99343.70
2019-05-21T05:42:13.268Z,99348.04
2019-05-21T05:44:41.704Z,99349.97
2019-05-21T05:47:10.146Z,99351.26
2019-05-21T05:49:42.830Z,99356.50
2019-05-21T05:52:11.286Z,99351.26
2019-05-21T05:54:39.868Z,99356.55
2019-05-21T05:57:08.343Z,99359.41
2019-05-21T05:59:36.754Z,99367.20
2019-05-21T06:02:05.363Z,99371.02
2019-05-21T06:04:33.806Z,99367.27
2019-05-21T06:07:02.332Z,99369.58
2019-05-21T06:09:30.827Z,99370.52
2019-05-21T06:11:59.315Z,99369.81
2019-05-21T06:14:27.779Z,99367.94
2019-05-21T06:16:56.256Z,99372.03
2019-05-21T06:19:24.692Z,99370.84
2019-05-21T06:21:53.207Z,99375.13
2019-05-21T06:24:21.623Z,99381.73
2019-05-21T06:26:50.194Z,99378.50
2019-05-21T06:29:19.085Z,99373.70
2019-05-21T06:31:47.530Z,99374.81
2019-05-21T06:34:15.972Z,99381.59
2019-05-21T06:36:44.407Z,99390.27
2019-05-21T06:39:12.846Z,99384.41
2019-05-21T06:41:41.294Z,99386.93
2019-05-21T06:44:09.729Z,99376.52
2019-05-21T06:46:38.166Z,99385.41
2019-05-21T06:49:06.675Z,99395.41
2019-05-21T06:51:35.159Z,99396.52
2019-05-21T06:54:03.597Z,99396.78
2019-05-21T06:56:32.046Z,99402.66
2019-05-21T06:59:00.482Z,99405.30
2019-05-21T07:01:29.744Z,99401.98
2019-05-21T07:03:58.446Z,99401.98
2019-05-21T07:06:26.926Z,99419.91
2019-05-21T07:08:55.458Z,99416.30
2019-05-21T07:11:23.892Z,99416.30
2019-05-21T07:13:52.407Z,99424.97
2019-05-21T07:16:20.835Z,99430.34
2019-05-21T07:18:49.269Z,99436.37
2019-05-21T07:21:17.713Z,99440.59
2019-05-21T07:23:46.133Z,99438.66
2019-05-21T07:26:14.592Z,99442.75
2019-05-21T07:28:43.067Z,99437.05
2019-05-21T07:31:11.683Z,99441.36
2019-05-21T07:33:40.190Z,99445.34
2019-05-21T07:36:08.703Z,99450.58
2019-05-21T07:38:51.801Z,99455.64
2019-05-21T07:41:07.430Z,99460.36
2019-05-21T07:43:35.975Z,99468.69
2019-05-21T07:46:04.446Z,99465.89
2019-05-21T07:48:33.082Z,99466.92
2019-05-21T07:51:01.489Z,99466.86
2019-05-21T07:53:29.924Z,99476.53
2019-05-21T07:55:58.360Z,99473.77
2019-05-21T07:58:26.784Z,99481.25
2019-05-21T08:00:55.232Z,99482.50
2019-05-21T08:03:23.755Z,99483.50
2019-05-21T08:05:52.168Z,99485.08
2019-05-21T08:08:20.610Z,99482.97
2019-05-21T08:10:49.029Z,99491.10
2019-05-21T08:13:17.467Z,99491.77
2019-05-21T08:15:45.918Z,99488.23
2019-05-21T08:18:14.331Z,99489.33
2019-05-21T08:20:42.770Z,99483.89
2019-05-21T08:23:11.198Z,99485.16
2019-05-21T08:25:39.610Z,99487.06
2019-05-21T08:28:08.047Z,99481.86
2019-05-21T08:30:36.573Z,99483.52
2019-05-21T08:33:05.465Z,99488.57
2019-05-21T08:35:33.964Z,99488.05
2019-05-21T08:38:06.329Z,99489.39
2019-05-21T08:40:32.631Z,99482.37
2019-05-21T08:43:01.119Z,99497.48
2019-05-21T08:45:29.614Z,99497.48
2019-05-21T08:47:58.214Z,99488.53
2019-05-21T08:50:26.669Z,99485.84
2019-05-21T08:52:55.170Z,99476.38
2019-05-21T08:55:23.624Z,99476.38
2019-05-21T08:58:06.299Z,99496.59
2019-05-21T09:00:22.941Z,99488.33
2019-05-21T09:02:51.565Z,99497.78
2019-05-21T09:05:20.555Z,99495.75
2019-05-21T09:07:53.269Z,99499.40
2019-05-21T09:10:19.395Z,99499.40
2019-05-21T09:12:47.802Z,99496.92
2019-05-21T09:15:16.654Z,99496.58
2019-05-21T09:17:45.101Z,99489.59
2019-05-21T09:20:14.920Z,99489.59
2019-05-21T09:22:43.553Z,99503.45
2019-05-21T09:25:12.911Z,99498.53
2019-05-21T09:27:41.460Z,99506.42
2019-05-21T09:30:11.545Z,99507.34
2019-05-21T09:32:40.003Z,99512.68
2019-05-21T09:35:11.030Z,99513.84
2019-05-21T09:37:39.483Z,99511.48
2019-05-21T09:40:09.938Z,99516.62
2019-05-21T09:42:38.533Z,99513.61
2019-05-21T09:45:08.551Z,99523.22
2019-05-21T09:47:37.123Z,99523.72
2019-05-21T09:50:11.222Z,99518.77
2019-05-21T09:52:39.975Z,99521.61
2019-05-21T09:55:09.422Z,99523.77
2019-05-21T09:57:45.660Z,99524.40
2019-05-21T10:00:35.931Z,99523.67
2019-05-21T10:03:06.171Z,99530.59
2019-05-21T10:05:34.610Z,99527.31
2019-05-21T10:08:03.459Z,99520.09
2019-05-21T10:10:31.945Z,99528.11
2019-05-21T10:13:00.369Z,99532.98
2019-05-21T10:15:28.785Z,99539.27
2019-05-21T10:17:57.233Z,99538.08
2019-05-21T10:20:25.660Z,99538.85
2019-05-21T10:22:54.093Z,99535.24
2019-05-21T10:25:22.550Z,99538.89
2019-05-21T10:27:51.014Z,99546.44
2019-05-21T10:30:19.664Z,99557.14
2019-05-21T10:32:48.088Z,99557.14
2019-05-21T10:35:16.505Z,99559.18
2019-05-21T10:37:54.440Z,99558.36
2019-05-21T10:40:15.737Z,99556.16
2019-05-21T10:42:44.327Z,99564.31
2019-05-21T10:45:13.574Z,99567.89
2019-05-21T10:47:42.028Z,99570.02
2019-05-21T10:50:10.619Z,99564.09
2019-05-21T10:52:39.026Z,99566.27
2019-05-21T10:55:09.229Z,99565.64
2019-05-21T10:57:37.729Z,99558.66
2019-05-21T11:00:10.435Z,99569.33
2019-05-21T11:02:40.945Z,99575.89
2019-05-21T11:05:11.756Z,99576.86
2019-05-21T11:07:40.186Z,99584.80
2019-05-21T11:10:10.215Z,99583.11
2019-05-21T11:12:38.683Z,99588.21
2019-05-21T11:15:08.600Z,99591.53
2019-05-21T11:17:53.288Z,99595.38
2019-05-21T11:20:07.779Z,99594.63
2019-05-21T11:22:36.213Z,99594.50
2019-05-21T11:25:06.995Z,99607.39
2019-05-21T11:27:35.402Z,99602.45
2019-05-21T11:30:05.717Z,99600.11
2019-05-21T11:32:34.224Z,99603.22
2019-05-21T11:35:02.718Z,99607.31
2019-05-21T11:37:31.205Z,99607.31
2019-05-21T11:39:59.645Z,99620.39
2019-05-21T11:42:28.125Z,99626.53
2019-05-21T11:44:56.582Z,99619.76
2019-05-21T11:47:25.015Z,99624.78
2019-05-21T11:49:53.459Z,99630.39
2019-05-21T11:52:21.953Z,99630.39
2019-05-21T11:54:50.383Z,99626.04
2019-05-21T11:57:18.837Z,99628.72
2019-05-21T11:59:47.344Z,99635.00
2019-05-21T12:02:15.776Z,99633.19
2019-05-21T12:04:44.214Z,99641.41
2019-05-21T12:07:12.664Z,99640.05
2019-05-21T12:09:41.137Z,99637.77
2019-05-21T12:12:09.570Z,99646.90
2019-05-21T12:14:37.995Z,99646.90
2019-05-21T12:17:06.573Z,99643.97
2019-05-21T12:19:35.116Z,99642.47
2019-05-21T12:22:03.625Z,99647.52
2019-05-21T12:24:32.221Z,99647.91
2019-05-21T12:27:00.667Z,99652.10
2019-05-21T12:29:29.202Z,99653.19
2019-05-21T12:31:57.648Z,99649.59
2019-05-21T12:34:26.063Z,99649.81
2019-05-21T12:36:54.514Z,99657.64
2019-05-21T12:39:22.918Z,99663.08
2019-05-21T12:41:51.348Z,99662.14
2019-05-21T12:44:19.791Z,99666.01
2019-05-21T12:46:48.215Z,99671.30
2019-05-21T12:49:16.728Z,99682.33
2019-05-21T12:51:45.136Z,99674.45
2019-05-21T12:54:13.575Z,99677.08
2019-05-21T12:56:42.006Z,99677.26
2019-05-21T12:59:10.429Z,99683.02
2019-05-21T13:01:38.878Z,99694.67
2019-05-21T13:04:07.373Z,99683.55
2019-05-21T13:06:36.017Z,99689.84
2019-05-21T13:09:08.150Z,99685.31
2019-05-21T13:11:36.984Z,99698.61
2019-05-21T13:14:05.747Z,99701.11
2019-05-21T13:16:34.276Z,99704.39
2019-05-21T13:19:02.738Z,99715.13
2019-05-21T13:21:31.256Z,99725.36
2019-05-21T13:23:59.674Z,99720.64
2019-05-21T13:26:28.153Z,99720.18
2019-05-21T13:28:56.650Z,99729.42
2019-05-21T13:31:25.080Z,99735.72
2019-05-21T13:33:53.509Z,99733.48
2019-05-21T13:36:23.447Z,99731.47
2019-05-21T13:38:51.865Z,99735.72
2019-05-21T13:41:20.469Z,99732.67
2019-05-21T13:43:48.903Z,99734.45
2019-05-21T13:46:17.401Z,99739.29
2019-05-21T13:48:47.016Z,99737.96
2019-05-21T13:51:15.930Z,99732.38
2019-05-21T13:53:44.357Z,99742.39
2019-05-21T13:56:12.842Z,99742.08
2019-05-21T13:58:41.269Z,99750.67
2019-05-21T14:01:10.831Z,99749.77
2019-05-21T14:03:39.258Z,99753.02
2019-05-21T14:06:07.756Z,99755.88
2019-05-21T14:08:36.244Z,99754.86
2019-05-21T14:11:05.539Z,99747.25
2019-05-21T14:13:34.024Z,99748.39
2019-05-21T14:16:02.463Z,99753.92
2019-05-21T14:18:30.970Z,99752.08
2019-05-21T14:20:59.389Z,99755.81
2019-05-21T14:23:27.815Z,99746.03
2019-05-21T14:25:56.244Z,99753.30
2019-05-21T14:28:24.670Z,99760.47
2019-05-21T14:30:53.130Z,99763.05
2019-05-21T14:33:21.571Z,99769.90
2019-05-21T14:35:50.129Z,99766.17
2019-05-21T14:38:18.570Z,99766.57
2019-05-21T14:40:46.998Z,99773.58
2019-05-21T14:43:15.612Z,99774.09
2019-05-21T14:45:44.163Z,99767.16
2019-05-21T14:48:12.623Z,99776.81
2019-05-21T14:50:41.072Z,99774.64
2019-05-21T14:53:09.579Z,99778.84
2019-05-21T14:55:38.032Z,99781.63
2019-05-21T14:58:06.568Z,99781.56
2019-05-21T15:00:36.765Z,99785.97
2019-05-21T15:03:06.404Z,99784.58
2019-05-21T15:05:35.668Z,99788.44
2019-05-21T15:08:05.359Z,99787.00
2019-05-21T15:10:47.155Z,99790.20
2019-05-21T15:13:06.129Z,99785.63
2019-05-21T15:15:35.533Z,99790.41
2019-05-21T15:18:04.050Z,99791.85
2019-05-21T15:20:37.187Z,99789.05
2019-05-21T15:23:05.742Z,99786.85
2019-05-21T15:25:36.829Z,99786.92
2019-05-21T15:28:05.300Z,99792.33
2019-05-21T15:30:33.734Z,99790.20
2019-05-21T15:33:02.192Z,99798.48
2019-05-21T15:35:30.615Z,99801.85
2019-05-21T15:37:59.422Z,99807.84
2019-05-21T15:40:27.934Z,99814.37
2019-05-21T15:42:56.360Z,99816.66
2019-05-21T15:45:25.839Z,99810.27
2019-05-21T15:47:54.264Z,99813.91
2019-05-21T15:50:22.700Z,99813.27
2019-05-21T15:52:51.178Z,99810.08
2019-05-21T15:55:19.627Z,99808.63
2019-05-21T15:57:48.067Z,99808.09
2019-05-21T16:00:17.117Z,99806.28
2019-05-21T16:02:45.535Z,99812.28
2019-05-21T16:05:14.117Z,99814.97
2019-05-21T16:07:42.543Z,99818.48
2019-05-21T16:10:11.302Z,99818.78
2019-05-21T16:12:39.749Z,99825.14
2019-05-21T16:15:08.629Z,99826.37
2019-05-21T16:17:37.057Z,99831.06
2019-05-21T16:20:09.658Z,99823.45
2019-05-21T16:22:38.100Z,99825.97
2019-05-21T16:25:07.730Z,99831.89
2019-05-21T16:27:36.104Z,99834.41
2019-05-21T16:30:07.823Z,99837.23
2019-05-21T16:32:36.409Z,99846.17
2019-05-21T16:35:07.562Z,99847.31
2019-05-21T16:37:36.184Z,99851.22
2019-05-21T16:40:07.140Z,99846.42
2019-05-21T16:42:35.657Z,99857.00
2019-05-21T16:45:06.773Z,99854.68
2019-05-21T16:47:44.329Z,99856.28
2019-05-21T16:50:07.454Z,99858.91
2019-05-21T16:52:35.886Z,99865.77
2019-05-21T16:55:06.965Z,99871.33
2019-05-21T16:57:35.393Z,99877.88
2019-05-21T17:00:06.933Z,99884.73
2019-05-21T17:02:35.368Z,99889.42
2019-05-21T17:05:06.122Z,99887.41
2019-05-21T17:07:34.559Z,99890.51
2019-05-21T17:10:03.071Z,99885.03
2019-05-21T17:12:31.585Z,99879.57
2019-05-21T17:15:00.012Z,99888.90
2019-05-21T17:17:28.469Z,99887.16
2019-05-21T17:19:57.089Z,99883.96
2019-05-21T17:22:25.525Z,99896.06
2019-05-21T17:24:54.155Z,99891.69
2019-05-21T17:27:22.616Z,99891.63
2019-05-21T17:29:51.154Z,99894.20
2019-05-21T17:32:19.585Z,99896.64
2019-05-21T17:34:48.031Z,99897.27
2019-05-21T17:37:16.541Z,99897.20
2019-05-21T17:39:44.978Z,99893.48
2019-05-21T17:42:15.809Z,99890.77
2019-05-21T17:44:43.765Z,99900.55
2019-05-21T17:47:12.199Z,99903.08
2019-05-21T17:49:40.638Z,99906.22
2019-05-21T17:52:09.222Z,99905.04
2019-05-21T17:54:37.681Z,99910.33
2019-05-21T17:57:09.126Z,99909.05
2019-05-21T17:59:37.553Z,99910.06
2019-05-21T18:02:08.266Z,99909.11
2019-05-21T18:04:37.214Z,99914.72
2019-05-21T18:07:06.218Z,99922.81
2019-05-21T18:09:34.990Z,99929.66
2019-05-21T18:12:05.049Z,99926.36
2019-05-21T18:14:34.088Z,99925.59
2019-05-21T18:17:04.250Z,99938.94
2019-05-21T18:19:33.585Z,99935.75
2019-05-21T18:22:02.116Z,99943.94
2019-05-21T18:24:30.824Z,99939.96
2019-05-21T18:26:59.323Z,99947.23
2019-05-21T18:29:27.751Z,99949.09
2019-05-21T18:31:56.191Z,99956.31
2019-05-21T18:34:24.610Z,99956.71
2019-05-21T18:36:53.521Z,99960.70
2019-05-21T18:39:22.417Z,99966.51
2019-05-21T18:41:50.969Z,99964.05
2019-05-21T18:44:19.573Z,99966.62
2019-05-21T18:46:48.053Z,99970.95
2019-05-21T18:49:16.515Z,99971.27
2019-05-21T18:51:44.943Z,99976.10
2019-05-21T18:54:13.413Z,99977.91
2019-05-21T18:56:41.877Z,99984.23
2019-05-21T18:59:10.631Z,99986.81
2019-05-21T19:01:39.056Z,99990.22
2019-05-21T19:04:07.555Z,99988.62
2019-05-21T19:06:36.061Z,99987.90
2019-05-21T19:09:06.444Z,99994.08
2019-05-21T19:11:36.432Z,99991.13
2019-05-21T19:14:05.084Z,99995.52
2019-05-21T19:16:33.556Z,99999.48
2019-05-21T19:19:03.656Z,100014.17
2019-05-21T19:21:32.154Z,100011.79
2019-05-21T19:24:00.711Z,100019.30
2019-05-21T19:26:29.195Z,100012.44
2019-05-21T19:28:57.738Z,100016.47
2019-05-21T19:31:26.259Z,100019.81
2019-05-21T19:33:54.708Z,100015.96
2019-05-21T19:36:23.166Z,100016.80
2019-05-21T19:38:51.585Z,100027.41
2019-05-21T19:41:20.178Z,100027.09
2019-05-21T19:43:48.652Z,100036.83
2019-05-21T19:46:17.141Z,100035.92
2019-05-21T19:48:45.575Z,100034.77
2019-05-21T19:51:14.205Z,100044.98
2019-05-21T19:53:42.626Z,100051.05
2019-05-21T19:56:11.132Z,100039.56
2019-05-21T19:58:39.583Z,100045.17
2019-05-21T20:01:09.727Z,100045.23
2019-05-21T20:03:39.294Z,100046.34
2019-05-21T20:06:09.716Z,100051.45
2019-05-21T20:08:38.360Z,100060.23
2019-05-21T20:11:07.545Z,100056.00
2019-05-21T20:13:35.955Z,100058.25
2019-05-21T20:16:06.100Z,100058.68
2019-05-21T20:18:34.808Z,100060.30
2019-05-21T20:21:04.751Z,100065.06
2019-05-21T20:23:33.749Z,100065.58
2019-05-21T20:26:03.005Z,100063.41
2019-05-21T20:28:31.799Z,100062.86
2019-05-21T20:31:00.789Z,100062.44
2019-05-21T20:33:31.233Z,100063.32
2019-05-21T20:36:00.625Z,100060.75
2019-05-21T20:38:29.963Z,100061.66
2019-05-21T20:40:59.398Z,100064.02
2019-05-21T20:43:28.071Z,100064.47
2019-05-21T20:45:56.831Z,100068.38
2019-05-21T20:48:27.009Z,100069.02
2019-05-21T20:51:02.737Z,100063.27
2019-05-21T20:53:31.569Z,100067.77
2019-05-21T20:56:00.150Z,100068.36
2019-05-21T20:58:29.150Z,100065.19
2019-05-21T21:01:02.107Z,100054.47
2019-05-21T21:03:31.658Z,100059.05
2019-05-21T21:06:00.733Z,100057.53
2019-05-21T21:08:31.334Z,100057.08
2019-05-21T21:11:01.266Z,100062.30
2019-05-21T21:13:29.875Z,100066.98
2019-05-21T21:15:58.660Z,100067.44
2019-05-21T21:18:28.525Z,100069.15
2019-05-21T21:20:57.028Z,100066.38
2019-05-21T21:23:27.082Z,100071.84
2019-05-21T21:25:56.361Z,100066.20
2019-05-21T21:28:24.973Z,100067.53
2019-05-21T21:30:54.862Z,100066.59
2019-05-21T21:33:23.714Z,100065.63
2019-05-21T21:35:53.017Z,100065.25
2019-05-21T21:38:23.791Z,100069.20
2019-05-21T21:40:52.278Z,100073.69
2019-05-21T21:43:20.793Z,100073.98
2019-05-21T21:45:49.280Z,100071.33
2019-05-21T21:48:17.742Z,100080.20
2019-05-21T21:50:46.516Z,100082.48
2019-05-21T21:53:14.967Z,100083.94
2019-05-21T21:55:43.397Z,100091.06
2019-05-21T21:58:11.835Z,100089.03
2019-05-21T22:00:56.889Z,100085.56
2019-05-21T22:03:26.948Z,100098.53
2019-05-21T22:05:55.611Z,100090.31
2019-05-21T22:08:24.118Z,100093.67
2019-05-21T22:10:52.634Z,100092.60
2019-05-21T22:13:21.058Z,100089.53
2019-05-21T22:15:49.591Z,100089.91
2019-05-21T22:18:19.071Z,100092.15
2019-05-21T22:20:48.225Z,100096.34
2019-05-21T22:23:17.677Z,100096.75
2019-05-21T22:25:47.031Z,100104.41
2019-05-21T22:28:15.528Z,100108.31
2019-05-21T22:30:45.006Z,100109.11
2019-05-21T22:33:14.268Z,100106.58
2019-05-21T22:35:43.061Z,100107.70
2019-05-21T22:38:11.942Z,100111.27
2019-05-21T22:40:40.436Z,100106.62
2019-05-21T22:43:08.970Z,100108.65
2019-05-21T22:45:37.454Z,100110.09
2019-05-21T22:48:05.971Z,100108.81
2019-05-21T22:50:35.453Z,100116.64
2019-05-21T22:53:04.031Z,100116.73
2019-05-21T22:55:33.813Z,100111.80
2019-05-21T22:58:02.334Z,100114.57
2019-05-21T23:00:32.655Z,100123.36
2019-05-21T23:03:02.281Z,100130.20
2019-05-21T23:05:30.798Z,100120.34
2019-05-21T23:08:00.510Z,100121.06
2019-05-21T23:10:29.098Z,100128.32
2019-05-21T23:12:57.542Z,100126.33
2019-05-21T23:15:25.960Z,100122.97
2019-05-21T23:17:55.364Z,100124.63
2019-05-21T23:20:25.441Z,100124.78
2019-05-21T23:22:55.634Z,100129.92
2019-05-21T23:25:24.085Z,100127.10
2019-05-21T23:27:53.080Z,100129.29
2019-05-21T23:30:22.102Z,100129.56
2019-05-21T23:32:50.928Z,100131.75
2019-05-21T23:35:19.715Z,100137.34
2019-05-21T23:37:51.571Z,100140.86
2019-05-21T23:40:22.042Z,100141.28
2019-05-21T23:42:50.481Z,100128.92
2019-05-21T23:45:20.062Z,100129.34
2019-05-21T23:47:49.188Z,100118.34
2019-05-21T23:50:19.806Z,100118.98
2019-05-21T23:52:49.473Z,100116.05
2019-05-21T23:55:17.993Z,100124.31
2019-05-21T23:57:48.474Z,100129.59
